Time;durP1;ratioP1;P1;durP2;ratioP2;P2;SDS_P1;SDS_P2;PMS_P1;PMS_P2;Temp;Humidity;BMP_temperature;BMP_pressure;BME280_temperature;BME280_humidity;BME280_pressure;Samples;Min_cycle;Max_cycle;Signal;HPM_P1;HPM_P2
2021/01/31 00:01:06;;;;;;;19.48;12.05;;;-1.20;99.90;;;;;;5016583;28;20165;-86
2021/01/31 00:03:32;;;;;;;22.90;12.63;;;-1.20;99.90;;;;;;5016066;28;20089;-86
2021/01/31 00:06:02;;;;;;;19.13;11.30;;;-1.30;99.90;;;;;;5016555;28;20482;-86
2021/01/31 00:08:28;;;;;;;18.75;11.27;;;-1.20;99.90;;;;;;5016522;28;20140;-86
2021/01/31 00:10:56;;;;;;;17.75;11.48;;;-1.20;99.90;;;;;;5015281;28;20134;-86
2021/01/31 00:13:25;;;;;;;18.90;11.68;;;-1.30;99.90;;;;;;5014843;28;20053;-86
2021/01/31 00:15:52;;;;;;;19.60;11.63;;;-1.20;99.90;;;;;;5014800;28;20054;-86
2021/01/31 00:18:22;;;;;;;20.88;11.52;;;-1.30;99.90;;;;;;5014733;28;20212;-86
2021/01/31 00:20:51;;;;;;;19.40;11.68;;;-1.30;99.90;;;;;;5015959;28;20383;-85
2021/01/31 00:23:17;;;;;;;19.80;12.45;;;-1.30;99.90;;;;;;5015062;28;20128;-86
2021/01/31 00:25:44;;;;;;;21.55;13.07;;;-1.30;99.90;;;;;;5014910;28;20046;-86
2021/01/31 00:28:12;;;;;;;17.80;11.43;;;-1.30;99.90;;;;;;5015575;28;20136;-86
2021/01/31 00:30:41;;;;;;;18.42;11.35;;;-1.30;99.90;;;;;;5014903;28;20466;-86
2021/01/31 00:33:11;;;;;;;20.90;12.27;;;-1.30;99.90;;;;;;5014430;28;20084;-86
2021/01/31 00:35:39;;;;;;;21.08;11.80;;;-1.30;99.90;;;;;;5015533;28;20081;-85
2021/01/31 00:38:10;;;;;;;18.42;11.90;;;-1.40;99.90;;;;;;5015665;28;20137;-86
2021/01/31 00:40:37;;;;;;;19.52;11.93;;;-1.40;99.90;;;;;;5014582;28;20082;-86
2021/01/31 00:43:04;;;;;;;17.90;11.32;;;-1.30;99.90;;;;;;5014530;28;20082;-86
2021/01/31 00:45:31;;;;;;;20.63;11.32;;;-1.30;99.90;;;;;;5015506;28;20082;-86
2021/01/31 00:47:57;;;;;;;20.70;13.10;;;-1.40;99.90;;;;;;5014463;28;20057;-86
2021/01/31 00:50:32;;;;;;;19.33;11.73;;;-1.40;99.90;;;;;;5015386;28;20046;-86
2021/01/31 00:52:59;;;;;;;18.58;11.73;;;-1.50;99.90;;;;;;5015427;28;20478;-86
2021/01/31 00:55:28;;;;;;;18.17;10.93;;;-1.40;99.90;;;;;;5015674;28;20049;-86
2021/01/31 00:57:54;;;;;;;17.23;11.05;;;-1.30;99.90;;;;;;5015383;28;20096;-86
2021/01/31 01:00:28;;;;;;;20.13;11.50;;;-1.30;99.90;;;;;;5014257;28;20137;-86
2021/01/31 01:02:55;;;;;;;16.88;11.48;;;-1.30;99.90;;;;;;5017012;28;20168;-86
2021/01/31 01:05:27;;;;;;;18.65;11.52;;;-1.40;99.90;;;;;;5014144;28;20053;-86
2021/01/31 01:07:54;;;;;;;17.10;11.43;;;-1.40;99.90;;;;;;5014217;28;20128;-86
2021/01/31 01:10:23;;;;;;;19.73;12.25;;;-1.50;99.90;;;;;;5014427;28;20498;-86
2021/01/31 01:12:51;;;;;;;17.45;12.07;;;-1.50;99.90;;;;;;5015099;28;20049;-86
2021/01/31 01:15:21;;;;;;;21.60;12.25;;;-1.50;99.90;;;;;;5014230;28;20113;-86
2021/01/31 01:17:48;;;;;;;20.25;11.95;;;-1.50;99.90;;;;;;5013945;28;20049;-86
2021/01/31 01:20:15;;;;;;;18.73;11.70;;;-1.50;99.90;;;;;;5015164;28;20130;-86
2021/01/31 01:22:41;;;;;;;19.58;11.93;;;-1.50;99.90;;;;;;5014203;28;20521;-86
2021/01/31 01:25:09;;;;;;;19.08;11.40;;;-1.50;99.90;;;;;;5014922;28;20092;-86
2021/01/31 01:27:37;;;;;;;19.35;11.63;;;-1.50;99.90;;;;;;5013720;28;20064;-86
2021/01/31 01:30:06;;;;;;;19.90;11.63;;;-1.50;99.90;;;;;;5015270;28;20121;-86
2021/01/31 01:32:32;;;;;;;19.63;12.32;;;-1.40;99.90;;;;;;5014665;28;20402;-85
2021/01/31 01:34:59;;;;;;;18.73;12.05;;;-1.40;99.90;;;;;;5013716;28;20049;-85
2021/01/31 01:37:26;;;;;;;18.45;11.57;;;-1.30;99.90;;;;;;5014712;28;20089;-86
2021/01/31 01:39:52;;;;;;;18.95;12.25;;;-1.30;99.90;;;;;;5013871;28;20078;-86
2021/01/31 01:42:18;;;;;;;19.25;12.60;;;-1.40;99.90;;;;;;5013738;28;20054;-85
2021/01/31 01:44:44;;;;;;;17.50;11.48;;;-1.40;99.90;;;;;;5014843;28;20081;-86
2021/01/31 01:47:18;;;;;;;18.45;12.13;;;-1.40;99.90;;;;;;5013289;28;20093;-86
2021/01/31 01:49:50;;;;;;;20.52;12.07;;;-1.50;99.90;;;;;;5013223;28;20459;-86
2021/01/31 01:52:32;;;;;;;19.45;11.57;;;-1.50;99.90;;;;;;5013205;28;20085;-86
2021/01/31 01:55:05;;;;;;;17.33;11.45;;;-1.50;99.90;;;;;;5013570;28;20061;-86
2021/01/31 01:57:39;;;;;;;16.70;10.77;;;-1.50;99.90;;;;;;5013343;28;20128;-86
2021/01/31 02:00:07;;;;;;;18.52;11.77;;;-1.50;99.90;;;;;;5013659;28;20568;-86
2021/01/31 02:02:40;;;;;;;19.55;12.52;;;-1.50;99.90;;;;;;5014446;28;20104;-86
2021/01/31 02:05:15;;;;;;;18.38;10.70;;;-1.50;99.90;;;;;;5013074;28;20061;-87
2021/01/31 02:07:43;;;;;;;18.52;11.63;;;-1.50;99.90;;;;;;5013139;28;20482;-86
2021/01/31 02:10:11;;;;;;;18.40;11.90;;;-1.60;99.90;;;;;;5014541;28;20100;-86
2021/01/31 02:12:40;;;;;;;17.83;11.55;;;-1.60;99.90;;;;;;5013117;28;20482;-86
2021/01/31 02:15:08;;;;;;;18.52;11.65;;;-1.60;99.90;;;;;;5013093;28;20088;-86
2021/01/31 02:17:54;;;;;;;19.05;11.45;;;-1.60;99.90;;;;;;5015426;28;20060;-87
2021/01/31 02:21:04;;;;;;;19.60;12.02;;;-1.70;99.90;;;;;;5014069;28;20053;-85
2021/01/31 02:23:51;;;;;;;16.65;11.15;;;-1.70;99.90;;;;;;5013915;28;20490;-86
2021/01/31 02:26:25;;;;;;;18.63;11.38;;;-1.70;99.90;;;;;;5014048;28;20080;-86
2021/01/31 02:29:00;;;;;;;18.90;11.68;;;-1.80;99.90;;;;;;5012973;28;20051;-86
2021/01/31 02:31:31;;;;;;;16.88;11.05;;;-1.80;99.90;;;;;;5012959;28;20109;-85
2021/01/31 02:34:39;;;;;;;17.17;10.68;;;-1.80;99.90;;;;;;5013082;28;20054;-85
2021/01/31 02:37:34;;;;;;;17.15;10.75;;;-1.80;99.90;;;;;;5012752;28;20042;-86
2021/01/31 02:40:06;;;;;;;19.25;11.73;;;-1.80;99.90;;;;;;5013093;28;20148;-85
2021/01/31 02:42:48;;;;;;;21.05;13.40;;;-2.00;99.90;;;;;;5013768;28;20046;-86
2021/01/31 02:45:26;;;;;;;19.05;11.57;;;-1.90;99.90;;;;;;5013828;28;20054;-86
2021/01/31 02:48:03;;;;;;;18.83;11.65;;;-2.00;99.90;;;;;;5012739;28;20142;-86
2021/01/31 02:50:45;;;;;;;20.05;11.90;;;-2.00;99.90;;;;;;5013024;28;20073;-85
2021/01/31 02:53:20;;;;;;;21.25;11.63;;;-2.10;99.90;;;;;;5013850;28;20061;-86
2021/01/31 02:56:04;;;;;;;19.60;11.18;;;-2.20;99.90;;;;;;5012661;28;20046;-86
2021/01/31 02:58:46;;;;;;;18.33;11.50;;;-2.30;99.90;;;;;;5012662;28;20046;-86
2021/01/31 03:01:29;;;;;;;16.35;11.10;;;-2.40;99.90;;;;;;5017395;28;20483;-86
2021/01/31 03:04:24;;;;;;;19.08;12.38;;;-2.50;99.90;;;;;;5016229;28;20061;-85
2021/01/31 03:06:58;;;;;;;20.90;12.27;;;-2.60;99.90;;;;;;5016784;28;20046;-86
2021/01/31 03:09:36;;;;;;;20.23;12.57;;;-2.50;99.90;;;;;;5016453;28;20085;-86
2021/01/31 03:12:09;;;;;;;20.33;12.27;;;-2.50;99.90;;;;;;5016063;28;20045;-85
2021/01/31 03:14:42;;;;;;;20.58;12.77;;;-2.50;99.90;;;;;;5016290;28;20081;-86
2021/01/31 03:17:29;;;;;;;21.58;12.25;;;-2.50;99.90;;;;;;5016400;28;20088;-86
2021/01/31 03:20:08;;;;;;;20.27;12.13;;;-2.50;99.90;;;;;;5016362;28;20062;-86
2021/01/31 03:22:46;;;;;;;19.90;11.77;;;-2.50;99.90;;;;;;5017051;28;20129;-86
2021/01/31 03:25:23;;;;;;;18.05;11.50;;;-2.40;99.90;;;;;;5016058;28;20137;-86
2021/01/31 03:27:49;;;;;;;19.73;12.02;;;-2.40;99.90;;;;;;5017788;28;20046;-84
2021/01/31 03:30:16;;;;;;;18.35;12.15;;;-2.50;99.90;;;;;;5016394;28;20054;-85
2021/01/31 03:33:17;;;;;;;19.13;12.38;;;-2.60;99.90;;;;;;5017068;28;20049;-86
2021/01/31 03:35:50;;;;;;;19.35;12.60;;;-2.70;99.90;;;;;;5015951;28;20463;-85
2021/01/31 03:38:31;;;;;;;18.33;11.52;;;-2.70;99.90;;;;;;5015661;28;20116;-86
2021/01/31 03:41:04;;;;;;;21.92;12.02;;;-2.70;99.90;;;;;;5016606;28;20137;-85
2021/01/31 03:43:30;;;;;;;20.92;11.82;;;-2.80;99.90;;;;;;5015704;28;20451;-86
2021/01/31 03:46:10;;;;;;;18.98;11.15;;;-2.80;99.90;;;;;;5015808;28;20587;-86
2021/01/31 03:49:02;;;;;;;19.30;11.52;;;-2.80;99.90;;;;;;5016660;28;20050;-85
2021/01/31 03:51:30;;;;;;;18.67;11.70;;;-2.90;99.90;;;;;;5005196;28;20474;-86
2021/01/31 03:53:57;;;;;;;19.20;11.30;;;-3.00;99.90;;;;;;5015462;28;20128;-85
2021/01/31 03:56:37;;;;;;;17.38;12.00;;;-2.90;99.90;;;;;;5015242;28;20140;-85
2021/01/31 03:59:05;;;;;;;19.15;11.43;;;-2.90;99.90;;;;;;5015368;28;20050;-86
2021/01/31 04:01:37;;;;;;;18.17;11.38;;;-3.00;99.90;;;;;;5016398;28;20049;-85
2021/01/31 04:04:18;;;;;;;20.85;12.02;;;-3.00;99.90;;;;;;5016402;28;20383;-85
2021/01/31 04:06:50;;;;;;;21.88;12.50;;;-3.10;99.90;;;;;;5015117;28;20414;-85
2021/01/31 04:09:19;;;;;;;20.97;12.97;;;-3.20;99.90;;;;;;5015082;28;20108;-85
2021/01/31 04:11:46;;;;;;;22.38;12.68;;;-3.20;99.90;;;;;;5014266;28;20133;-85
2021/01/31 04:14:18;;;;;;;21.20;12.57;;;-3.20;99.90;;;;;;5014989;28;20073;-85
2021/01/31 04:16:47;;;;;;;20.23;11.77;;;-3.30;99.90;;;;;;5014827;28;20505;-85
2021/01/31 04:19:14;;;;;;;23.35;11.98;;;-3.30;99.90;;;;;;5015900;28;20054;-85
2021/01/31 04:21:42;;;;;;;20.75;12.63;;;-3.40;99.90;;;;;;5015939;28;20060;-85
2021/01/31 04:24:08;;;;;;;17.88;11.23;;;-3.50;99.90;;;;;;5015785;28;20137;-85
2021/01/31 04:26:35;;;;;;;20.88;11.57;;;-3.50;99.90;;;;;;5014937;28;20045;-85
2021/01/31 04:29:02;;;;;;;23.52;11.70;;;-3.60;99.90;;;;;;5014640;28;20058;-85
2021/01/31 04:31:29;;;;;;;20.70;12.70;;;-3.60;99.90;;;;;;5015577;28;20144;-85
2021/01/31 04:33:55;;;;;;;23.67;13.48;;;-3.70;99.90;;;;;;5014845;28;20523;-84
2021/01/31 04:36:23;;;;;;;26.90;14.30;;;-3.80;99.90;;;;;;5015579;28;20556;-85
2021/01/31 04:38:50;;;;;;;23.55;13.38;;;-3.80;99.90;;;;;;5014452;28;20050;-85
2021/01/31 04:41:17;;;;;;;21.08;12.20;;;-3.80;99.90;;;;;;5015929;28;20046;-84
2021/01/31 04:43:47;;;;;;;21.67;12.07;;;-3.90;99.90;;;;;;5016684;28;20056;-85
2021/01/31 04:46:20;;;;;;;23.48;12.68;;;-3.90;99.90;;;;;;5014281;28;20046;-85
2021/01/31 04:49:35;;;;;;;22.08;12.95;;;-3.90;99.90;;;;;;5014345;28;20060;-85
2021/01/31 04:52:14;;;;;;;23.52;12.57;;;-4.00;99.90;;;;;;4977453;28;20511;-85
2021/01/31 04:54:44;;;;;;;25.13;13.55;;;-4.10;99.90;;;;;;5013462;28;20525;-85
2021/01/31 04:57:17;;;;;;;28.88;14.20;;;-4.20;99.90;;;;;;5015064;28;20549;-85
2021/01/31 04:59:48;;;;;;;25.08;14.60;;;-4.20;99.90;;;;;;5015184;28;20055;-85
2021/01/31 05:02:23;;;;;;;26.75;14.00;;;-4.20;99.90;;;;;;5014137;28;20053;-85
2021/01/31 05:04:53;;;;;;;28.55;14.63;;;-4.20;99.90;;;;;;5014876;28;20050;-85
2021/01/31 05:07:26;;;;;;;27.52;14.48;;;-4.30;99.90;;;;;;5013968;28;20128;-85
2021/01/31 05:09:52;;;;;;;24.08;13.27;;;-4.40;99.90;;;;;;5015214;28;20049;-85
2021/01/31 05:12:41;;;;;;;25.55;13.75;;;-4.50;99.90;;;;;;5013866;28;20050;-84
2021/01/31 05:15:29;;;;;;;21.63;11.95;;;-4.60;99.90;;;;;;5013685;28;20513;-85
2021/01/31 05:17:59;;;;;;;24.38;13.95;;;-4.70;99.90;;;;;;5013864;28;20049;-85
2021/01/31 05:20:34;;;;;;;26.67;13.73;;;-4.80;99.90;;;;;;5013559;28;20050;-85
2021/01/31 05:23:00;;;;;;;29.83;15.45;;;-4.90;99.90;;;;;;5013589;28;20050;-85
2021/01/31 05:25:31;;;;;;;33.20;15.98;;;-4.90;99.90;;;;;;5013654;28;20071;-85
2021/01/31 05:28:00;;;;;;;29.02;15.65;;;-4.90;99.90;;;;;;5013566;28;20491;-85
2021/01/31 05:30:29;;;;;;;26.05;14.40;;;-5.00;99.90;;;;;;5013491;28;20054;-84
2021/01/31 05:33:18;;;;;;;30.27;14.05;;;-5.00;99.90;;;;;;5013780;28;20077;-85
2021/01/31 05:36:11;;;;;;;24.88;13.07;;;-5.20;99.90;;;;;;5014060;28;20570;-84
2021/01/31 05:38:41;;;;;;;29.35;15.23;;;-5.30;99.90;;;;;;5013686;28;20050;-87
2021/01/31 05:41:22;;;;;;;23.73;13.10;;;-5.30;99.90;;;;;;5013536;28;20050;-85
2021/01/31 05:44:02;;;;;;;25.80;13.10;;;-5.40;99.90;;;;;;5013736;28;20081;-87
2021/01/31 05:46:50;;;;;;;23.90;13.55;;;-5.50;99.90;;;;;;5013645;28;20054;-87
2021/01/31 05:49:36;;;;;;;23.30;12.32;;;-5.60;99.90;;;;;;5014488;28;20121;-88
2021/01/31 05:52:09;;;;;;;22.77;12.40;;;-5.60;99.90;;;;;;5013328;28;20077;-87
2021/01/31 05:54:37;;;;;;;23.85;12.90;;;-5.60;99.90;;;;;;5014588;28;20132;-85
2021/01/31 05:57:19;;;;;;;25.17;12.27;;;-5.70;99.90;;;;;;5013305;28;20085;-87
2021/01/31 05:59:45;;;;;;;27.02;13.52;;;-5.80;99.90;;;;;;5019358;28;20053;-87
2021/01/31 06:02:22;;;;;;;25.75;13.90;;;-5.90;99.90;;;;;;5013336;28;20108;-85
2021/01/31 06:04:58;;;;;;;27.73;13.63;;;-5.90;99.90;;;;;;5012895;28;20049;-84
2021/01/31 06:07:24;;;;;;;27.52;13.45;;;-5.90;99.90;;;;;;5013959;28;20543;-84
2021/01/31 06:09:52;;;;;;;27.00;13.85;;;-6.00;99.90;;;;;;5013351;28;20414;-85
2021/01/31 06:12:26;;;;;;;25.77;12.93;;;-6.10;99.90;;;;;;5013064;28;20052;-84
2021/01/31 06:15:06;;;;;;;22.27;12.52;;;-6.00;99.90;;;;;;5013137;28;20099;-84
2021/01/31 06:17:33;;;;;;;24.08;12.32;;;-6.10;99.90;;;;;;5014300;28;20081;-84
2021/01/31 06:20:06;;;;;;;22.58;11.70;;;-6.10;99.90;;;;;;5013167;28;20050;-87
2021/01/31 06:22:51;;;;;;;;;;;-6.10;99.90;;;;;;5013646;28;20054;-87
2021/01/31 06:25:26;;;;;;;21.75;11.80;;;-6.20;99.90;;;;;;5010377;28;19926;-87
2021/01/31 06:28:12;;;;;;;26.90;12.85;;;-6.20;99.90;;;;;;5012778;28;20402;-84
2021/01/31 06:30:52;;;;;;;23.15;11.57;;;-6.20;99.90;;;;;;5013228;28;20506;-86
2021/01/31 06:33:19;;;;;;;24.92;13.02;;;-6.30;99.90;;;;;;5012890;28;20085;-85
2021/01/31 06:35:48;;;;;;;25.52;13.68;;;-6.30;99.90;;;;;;5020285;28;20052;-85
2021/01/31 06:38:29;;;;;;;27.75;13.70;;;-6.20;99.90;;;;;;5019420;28;20550;-87
2021/01/31 06:41:05;;;;;;;41.80;18.20;;;-6.10;99.90;;;;;;5020283;28;20057;-87
2021/01/31 06:43:58;;;;;;;57.83;24.92;;;-6.00;99.90;;;;;;5020131;28;20046;-85
2021/01/31 06:46:52;;;;;;;56.35;25.85;;;-5.70;99.90;;;;;;5019166;28;20504;-84
2021/01/31 06:49:36;;;;;;;62.05;27.00;;;-5.60;99.90;;;;;;5019462;28;20081;-85
2021/01/31 06:52:18;;;;;;;59.40;25.58;;;-5.40;99.90;;;;;;5020502;28;20140;-87
2021/01/31 06:55:00;;;;;;;55.15;23.15;;;-5.30;99.90;;;;;;5019204;28;20578;-87
2021/01/31 06:57:47;;;;;;;43.75;20.40;;;-5.30;99.90;;;;;;5019098;28;20077;-84
2021/01/31 07:00:41;;;;;;;45.28;21.05;;;-5.20;99.90;;;;;;5019144;28;20042;-84
2021/01/31 07:03:44;;;;;;;36.10;17.27;;;-5.10;99.90;;;;;;5020213;28;20552;-83
2021/01/31 07:06:38;;;;;;;48.35;23.15;;;-5.20;99.90;;;;;;5019088;28;20052;-85
2021/01/31 07:09:13;;;;;;;;;;;-5.20;99.90;;;;;;5020388;28;20054;-85
2021/01/31 07:12:16;;;;;;;43.58;20.05;;;-5.30;99.90;;;;;;5019387;28;19928;-87
2021/01/31 07:15:04;;;;;;;41.28;19.90;;;-5.10;99.90;;;;;;5019053;28;20050;-87
2021/01/31 07:17:45;;;;;;;35.17;18.33;;;-5.20;99.90;;;;;;5020161;28;20553;-87
2021/01/31 07:20:24;;;;;;;34.17;18.20;;;-5.20;99.90;;;;;;5021326;28;20054;-87
2021/01/31 07:22:53;;;;;;;32.95;16.67;;;-5.10;99.90;;;;;;5019071;28;20049;-86
2021/01/31 07:25:25;;;;;;;37.75;17.15;;;-5.00;99.90;;;;;;5017913;28;20144;-87
2021/01/31 07:28:15;;;;;;;33.13;16.20;;;-5.00;99.90;;;;;;5017974;28;20057;-86
2021/01/31 07:30:48;;;;;;;44.03;23.10;;;-5.00;99.90;;;;;;5018049;28;20050;-86
2021/01/31 07:33:24;;;;;;;40.83;19.67;;;-5.00;99.90;;;;;;5017906;28;20498;-86
2021/01/31 07:36:12;;;;;;;36.13;18.25;;;-5.00;99.90;;;;;;5018094;28;20384;-87
2021/01/31 07:39:00;;;;;;;36.00;16.63;;;-4.90;99.90;;;;;;5018197;28;20080;-87
2021/01/31 07:41:28;;;;;;;32.75;16.20;;;-4.80;99.90;;;;;;5018058;28;20140;-86
2021/01/31 07:44:09;;;;;;;36.38;17.40;;;-4.80;99.90;;;;;;5018379;28;20462;-86
2021/01/31 07:46:37;;;;;;;42.42;21.17;;;-4.70;99.90;;;;;;5014632;28;20482;-86
2021/01/31 07:49:06;;;;;;;41.85;22.83;;;-4.70;99.90;;;;;;5015709;28;20076;-87
2021/01/31 07:51:37;;;;;;;59.63;37.15;;;-4.50;99.90;;;;;;5014696;28;20065;-87
2021/01/31 07:54:21;;;;;;;52.47;29.95;;;-4.50;99.90;;;;;;5015046;28;20144;-87
2021/01/31 07:56:53;;;;;;;39.15;19.40;;;-4.40;99.90;;;;;;5015221;28;20132;-86
2021/01/31 07:59:20;;;;;;;37.13;19.17;;;-4.40;99.90;;;;;;5014872;28;20135;-87
2021/01/31 08:01:54;;;;;;;34.72;17.83;;;-4.20;99.90;;;;;;5014847;28;20046;-87
2021/01/31 08:04:25;;;;;;;31.42;16.45;;;-4.20;99.90;;;;;;5015644;28;20485;-87
2021/01/31 08:06:57;;;;;;;35.90;17.70;;;-4.20;99.90;;;;;;5014495;28;20062;-87
2021/01/31 08:09:24;;;;;;;35.47;18.10;;;-4.20;99.90;;;;;;5014325;28;20050;-86
2021/01/31 08:11:56;;;;;;;38.33;19.70;;;-4.20;99.90;;;;;;5014352;28;20608;-87
2021/01/31 08:14:59;;;;;;;34.72;19.77;;;-4.10;99.90;;;;;;5014337;28;20058;-87
2021/01/31 08:17:46;;;;;;;35.00;18.58;;;-4.30;99.90;;;;;;5014293;28;20083;-86
2021/01/31 08:20:17;;;;;;;34.53;16.77;;;-4.40;99.90;;;;;;5015496;28;20476;-87
2021/01/31 08:22:45;;;;;;;28.83;15.47;;;-4.30;99.90;;;;;;5015127;28;20058;-87
2021/01/31 08:25:14;;;;;;;33.70;16.65;;;-4.50;99.90;;;;;;5014046;28;20521;-87
2021/01/31 08:27:40;;;;;;;29.02;16.80;;;-4.50;99.90;;;;;;5014131;28;20080;-87
2021/01/31 08:30:23;;;;;;;37.40;19.30;;;-4.60;99.90;;;;;;5014004;28;20115;-87
2021/01/31 08:33:01;;;;;;;29.05;15.73;;;-4.60;99.90;;;;;;5014183;28;20192;-87
2021/01/31 08:35:42;;;;;;;31.10;15.98;;;-4.50;99.90;;;;;;5013966;28;20050;-87
2021/01/31 08:38:24;;;;;;;30.52;15.93;;;-4.50;99.90;;;;;;5013827;28;20046;-87
2021/01/31 08:41:03;;;;;;;30.33;16.17;;;-4.50;99.90;;;;;;5013500;28;20057;-87
2021/01/31 08:43:51;;;;;;;31.45;15.55;;;-4.70;99.90;;;;;;5013012;28;20054;-87
2021/01/31 08:46:25;;;;;;;29.40;15.88;;;-4.70;99.90;;;;;;5013334;28;20049;-86
2021/01/31 08:48:58;;;;;;;27.92;17.02;;;-4.50;99.90;;;;;;5012428;28;20112;-87
2021/01/31 08:51:30;;;;;;;33.17;19.85;;;-4.50;99.90;;;;;;5012964;28;20144;-86
2021/01/31 08:54:08;;;;;;;31.13;16.60;;;-4.60;99.90;;;;;;5012609;28;20100;-86
2021/01/31 08:56:45;;;;;;;32.22;17.50;;;-4.50;99.90;;;;;;5011440;28;20054;-87
2021/01/31 08:59:19;;;;;;;31.55;17.40;;;-4.50;99.90;;;;;;5012534;28;20144;-86
2021/01/31 09:01:48;;;;;;;31.23;16.95;;;-4.60;99.90;;;;;;5014479;28;20069;-87
2021/01/31 09:04:18;;;;;;;30.35;17.67;;;-4.50;99.90;;;;;;5013049;28;20144;-86
2021/01/31 09:06:47;;;;;;;30.83;17.10;;;-4.40;99.90;;;;;;5013362;28;20042;-87
2021/01/31 09:09:24;;;;;;;28.35;16.00;;;-4.50;99.90;;;;;;5012886;28;20060;-87
2021/01/31 09:11:55;;;;;;;27.95;13.90;;;-4.40;99.90;;;;;;5013326;28;20410;-87
2021/01/31 09:14:40;;;;;;;29.42;15.10;;;-4.20;99.90;;;;;;5013100;28;20100;-87
2021/01/31 09:17:19;;;;;;;31.88;15.82;;;-4.10;99.90;;;;;;5013408;28;20061;-87
2021/01/31 09:19:48;;;;;;;34.70;19.27;;;-3.90;99.90;;;;;;5013463;28;20133;-88
2021/01/31 09:22:20;;;;;;;34.38;19.27;;;-2.80;99.90;;;;;;5013181;28;20057;-87
2021/01/31 09:24:52;;;;;;;30.58;17.65;;;-1.20;99.90;;;;;;5013405;28;20073;-88
2021/01/31 09:27:24;;;;;;;16.50;11.32;;;0.40;99.90;;;;;;5013476;28;20479;-88
2021/01/31 09:29:59;;;;;;;14.65;10.45;;;1.90;99.90;;;;;;5013547;28;20141;-89
2021/01/31 09:32:31;;;;;;;12.18;9.15;;;2.60;99.90;;;;;;5013597;28;20050;-89
2021/01/31 09:34:59;;;;;;;12.38;8.13;;;2.40;99.90;;;;;;5013385;28;20050;-89
2021/01/31 09:37:30;;;;;;;11.88;8.70;;;1.70;99.90;;;;;;5013372;28;20070;-88
2021/01/31 09:40:04;;;;;;;9.45;7.05;;;1.20;99.90;;;;;;5013478;28;20084;-88
2021/01/31 09:42:34;;;;;;;10.77;7.70;;;1.30;99.90;;;;;;5013113;28;20100;-88
2021/01/31 09:45:05;;;;;;;8.10;7.22;;;2.50;99.90;;;;;;5012835;28;20054;-89
2021/01/31 09:47:32;;;;;;;9.63;6.50;;;3.60;99.90;;;;;;5012648;28;20068;-88
2021/01/31 09:50:04;;;;;;;7.72;6.10;;;5.80;99.90;;;;;;5014207;28;20049;-88
2021/01/31 09:52:40;;;;;;;7.80;5.55;;;7.70;93.10;;;;;;5013881;28;20054;-88
2021/01/31 09:55:28;;;;;;;7.50;6.50;;;9.30;83.50;;;;;;5014462;28;20062;-87
2021/01/31 09:57:56;;;;;;;6.30;5.50;;;9.60;78.50;;;;;;5013686;28;20071;-88
2021/01/31 10:00:28;;;;;;;8.45;6.03;;;10.80;75.30;;;;;;5012835;28;20053;-88
2021/01/31 10:03:04;;;;;;;8.60;5.97;;;10.50;69.10;;;;;;5013851;28;20054;-89
2021/01/31 10:05:32;;;;;;;9.93;6.28;;;10.50;67.00;;;;;;5013400;28;20145;-89
2021/01/31 10:08:12;;;;;;;7.18;5.95;;;12.40;67.10;;;;;;5012548;28;20409;-89
2021/01/31 10:10:41;;;;;;;9.02;6.63;;;13.60;62.10;;;;;;5013111;28;20046;-87
2021/01/31 10:13:32;;;;;;;7.22;5.93;;;13.90;57.80;;;;;;5012758;28;20092;-86
2021/01/31 10:16:01;;;;;;;9.15;5.20;;;15.10;56.50;;;;;;5013446;28;20084;-87
2021/01/31 10:18:30;;;;;;;8.68;5.13;;;16.50;54.80;;;;;;5011549;28;20136;-87
2021/01/31 10:21:21;;;;;;;13.13;6.60;;;17.30;52.20;;;;;;5012357;28;20399;-87
2021/01/31 10:24:04;;;;;;;13.80;7.05;;;17.20;49.50;;;;;;5012415;28;20131;-87
2021/01/31 10:26:30;;;;;;;14.60;6.22;;;16.20;49.80;;;;;;5013613;28;20045;-87
2021/01/31 10:29:00;;;;;;;7.03;6.38;;;16.30;49.60;;;;;;5012399;28;20054;-87
2021/01/31 10:31:35;;;;;;;15.43;7.65;;;16.30;50.90;;;;;;5012556;28;20130;-86
2021/01/31 10:34:05;;;;;;;8.75;7.95;;;15.40;51.70;;;;;;5013514;28;20088;-87
2021/01/31 10:36:40;;;;;;;6.38;5.78;;;14.50;53.40;;;;;;5013159;28;20125;-87
2021/01/31 10:39:09;;;;;;;7.22;6.03;;;14.50;54.40;;;;;;5013431;28;20064;-88
2021/01/31 10:41:37;;;;;;;6.20;5.60;;;13.80;54.90;;;;;;5012353;28;20056;-87
2021/01/31 10:44:07;;;;;;;6.72;6.07;;;13.60;56.90;;;;;;5011181;28;20232;-89
2021/01/31 10:46:35;;;;;;;5.97;5.38;;;13.90;54.00;;;;;;5012308;28;20075;-86
2021/01/31 10:49:02;;;;;;;5.93;5.32;;;14.30;53.70;;;;;;5013493;28;20137;-88
2021/01/31 10:51:32;;;;;;;6.68;5.75;;;15.40;52.70;;;;;;5012345;28;20456;-87
2021/01/31 10:54:00;;;;;;;8.02;6.22;;;15.50;50.70;;;;;;5012455;28;20137;-89
2021/01/31 10:56:26;;;;;;;14.90;10.75;;;12.80;53.10;;;;;;5013265;28;20206;-89
2021/01/31 10:58:53;;;;;;;10.30;9.10;;;10.40;60.40;;;;;;5013012;28;20050;-89
2021/01/31 11:01:20;;;;;;;10.65;6.82;;;8.50;66.10;;;;;;5013451;28;20132;-88
2021/01/31 11:03:48;;;;;;;14.02;10.13;;;6.60;75.90;;;;;;5012494;28;20062;-89
2021/01/31 11:06:15;;;;;;;10.32;7.20;;;5.60;92.80;;;;;;5012037;28;20124;-89
2021/01/31 11:08:42;;;;;;;12.18;8.55;;;5.90;98.30;;;;;;5011953;28;20501;-89
2021/01/31 11:11:08;;;;;;;9.10;6.25;;;7.00;96.30;;;;;;5012484;28;20045;-90
2021/01/31 11:13:35;;;;;;;7.30;6.32;;;9.00;80.30;;;;;;5015824;28;20053;-89
2021/01/31 11:16:03;;;;;;;9.40;6.68;;;10.50;73.60;;;;;;5012182;28;20053;-89
2021/01/31 11:18:30;;;;;;;8.77;6.00;;;12.20;68.70;;;;;;5013160;28;20054;-88
2021/01/31 11:20:56;;;;;;;9.30;6.32;;;13.60;59.70;;;;;;5013870;28;20080;-87
2021/01/31 11:23:23;;;;;;;6.38;5.78;;;12.60;58.80;;;;;;5015784;28;20045;-87
2021/01/31 11:25:50;;;;;;;6.18;5.60;;;13.50;58.50;;;;;;5016837;28;20084;-87
2021/01/31 11:28:17;;;;;;;8.70;6.53;;;13.90;59.20;;;;;;5016512;28;20136;-86
2021/01/31 11:30:45;;;;;;;7.22;6.63;;;13.30;60.70;;;;;;5015855;28;20076;-88
2021/01/31 11:33:11;;;;;;;8.18;6.13;;;14.10;57.60;;;;;;5017003;28;20509;-88
2021/01/31 11:35:39;;;;;;;6.60;6.00;;;13.60;60.40;;;;;;5016405;28;20128;-87
2021/01/31 11:38:05;;;;;;;5.90;5.40;;;13.10;62.10;;;;;;5017035;28;20128;-88
2021/01/31 11:40:32;;;;;;;7.40;6.13;;;12.60;60.50;;;;;;5016329;28;20104;-87
2021/01/31 11:42:59;;;;;;;7.03;6.05;;;11.90;62.80;;;;;;5017013;28;20049;-87
2021/01/31 11:45:27;;;;;;;7.05;5.85;;;13.40;63.90;;;;;;5016998;28;20123;-87
2021/01/31 11:47:54;;;;;;;6.30;5.70;;;14.20;57.30;;;;;;5016248;28;20482;-87
2021/01/31 11:50:23;;;;;;;7.22;6.30;;;15.00;56.40;;;;;;5016057;28;20133;-87
2021/01/31 11:52:50;;;;;;;7.72;5.90;;;14.60;54.80;;;;;;5016065;28;20046;-88
2021/01/31 11:55:17;;;;;;;6.07;5.47;;;14.40;57.40;;;;;;5016061;28;20491;-88
2021/01/31 11:57:43;;;;;;;6.35;5.65;;;15.70;54.80;;;;;;5015668;28;20399;-87
2021/01/31 12:00:13;;;;;;;6.55;5.95;;;15.80;54.10;;;;;;5015965;28;20056;-88
2021/01/31 12:02:40;;;;;;;6.07;5.57;;;15.60;54.80;;;;;;5016144;28;20395;-87
2021/01/31 12:05:13;;;;;;;7.00;6.10;;;14.70;54.50;;;;;;5015518;28;20169;-87
2021/01/31 12:07:40;;;;;;;7.20;5.97;;;14.00;56.40;;;;;;5016709;28;20046;-87
2021/01/31 12:10:08;;;;;;;6.90;6.20;;;13.10;57.80;;;;;;5016921;28;20133;-87
2021/01/31 12:12:35;;;;;;;6.57;5.97;;;12.30;59.90;;;;;;5016918;28;20398;-87
2021/01/31 12:15:02;;;;;;;6.72;5.22;;;12.20;60.50;;;;;;5016482;28;20065;-88
2021/01/31 12:17:29;;;;;;;6.85;6.15;;;12.20;63.50;;;;;;5015559;28;20050;-87
2021/01/31 12:19:55;;;;;;;5.30;4.80;;;11.80;65.20;;;;;;5015910;28;20549;-87
2021/01/31 12:22:23;;;;;;;5.72;5.22;;;13.10;62.20;;;;;;5015403;28;20049;-87
2021/01/31 12:24:52;;;;;;;6.03;5.43;;;13.90;59.90;;;;;;5015405;28;20054;-87
2021/01/31 12:27:21;;;;;;;81.80;57.33;;;14.70;58.10;;;;;;5015269;28;20140;-87
2021/01/31 12:29:50;;;;;;;7.55;6.75;;;15.50;57.00;;;;;;5016365;28;20046;-88
2021/01/31 12:32:17;;;;;;;7.13;5.75;;;14.40;57.00;;;;;;5014840;28;20056;-88
2021/01/31 12:34:43;;;;;;;5.30;4.80;;;13.90;59.00;;;;;;5015649;28;20042;-87
2021/01/31 12:37:10;;;;;;;5.68;5.03;;;14.60;57.20;;;;;;5015031;28;20078;-88
2021/01/31 12:39:37;;;;;;;6.32;5.68;;;14.80;56.40;;;;;;5016237;28;20060;-87
2021/01/31 12:42:04;;;;;;;5.63;5.10;;;14.60;57.40;;;;;;5016001;28;20129;-87
2021/01/31 12:44:31;;;;;;;6.13;5.30;;;14.10;57.00;;;;;;5015317;28;20052;-88
2021/01/31 12:46:57;;;;;;;6.70;5.63;;;14.40;58.10;;;;;;5014888;28;20049;-87
2021/01/31 12:49:23;;;;;;;5.72;5.10;;;14.00;57.30;;;;;;5015474;28;20557;-87
2021/01/31 12:51:49;;;;;;;8.50;5.13;;;14.00;56.90;;;;;;5015902;28;20548;-87
2021/01/31 12:54:17;;;;;;;6.13;5.28;;;13.70;56.80;;;;;;5014962;28;20418;-87
2021/01/31 12:56:44;;;;;;;9.30;6.07;;;13.30;58.30;;;;;;5014882;28;20060;-87
2021/01/31 12:59:10;;;;;;;6.70;5.50;;;12.30;59.70;;;;;;5015604;28;20060;-87
2021/01/31 13:01:37;;;;;;;6.18;5.57;;;11.60;62.00;;;;;;5014871;28;20085;-89
2021/01/31 13:04:03;;;;;;;6.43;5.82;;;10.70;65.00;;;;;;5015444;28;20058;-89